Weather History for Lakehurst NAS, NJ

Change the Weather History Date:

Monday, October 29, 2012

  Actual Average Record
Temperature  
Mean Temperature 57 °F -  
Max Temperature 51 °F 60 °F 71 °F (1999)
Min Temperature 51 °F 43 °F 32 °F (1997)
Degree Days  
Heating Degree Days 8    
Growing Degree Days 7 (Base 50)    
Moisture  
Dew Point 54 °F    
Average Humidity 92    
Maximum Humidity 100    
Minimum Humidity 72    
Precipitation  
Precipitation 0.00 in - - ()
Sea Level Pressure  
Sea Level Pressure 28.79 in    
Wind  
Wind Speed 19 mph (NE)    
Max Wind Speed 46 mph    
Max Gust Speed 71 mph    
Visibility 3 miles    
Events Rain    
Averages and records for this station are not official NWS values.
T = Trace of Precipitation, MM = Missing Value Source: NWS Daily Summary

Daily Weather History Graph

Daily Weather History Graph

Search for Another Location

Airport:

Trip Planner

Search our weather history database for the weather conditions in past years. The results will help you decide how hot, cold, wet, or windy it might be!

Date:

Astronomy

Oct. 29, 2012 Rise Set
Actual Time 7:23 AM EDT 5:57 PM EDT
Civil Twilight 6:55 AM EDT 6:25 PM EDT
Nautical Twilight 6:23 AM EDT 6:57 PM EDT
Astronomical Twilight 5:52 AM EDT 7:29 PM EDT
Moon 5:48 PM EDT (10/29) 7:11 AM EDT (10/29)
Length of Visible Light 11h 30m
Length of Day
10h 34m
Full, 100% of the Moon is Illuminated
Oct 29
Full
Oct 29
Full
Nov 6
Last Quarter
Nov 13
New
Nov 20
First Quarter

Hourly Weather History & Observations

Time (EDT) Temp. Dew Point Humidity Pressure Visibility Wind Dir Wind Speed Gust Speed Precip Events Conditions
12:00 AM 57.0 °F 48.0 °F 72% 29.58 in 10.0 mi NE 16.1 mph 24.2 mph N/A   Overcast
1:00 AM 55.9 °F 48.0 °F 75% 29.56 in 10.0 mi NE 10.4 mph 32.2 mph N/A   Overcast
2:00 AM 55.0 °F 48.0 °F 77% 29.52 in 10.0 mi NE 13.8 mph 28.8 mph N/A   Overcast
3:00 AM 53.1 °F 50.0 °F 89% 29.48 in 6.0 mi NNE 9.2 mph 26.5 mph 0.00 in Rain Light Rain
4:00 AM 52.0 °F 48.9 °F 89% 29.43 in 4.0 mi NNE 10.4 mph 31.1 mph N/A Rain Light Rain
5:00 AM 53.1 °F 48.9 °F 86% 29.37 in 10.0 mi North 12.7 mph 29.9 mph N/A   Overcast
6:00 AM 53.6 °F 50.0 °F 88% 29.31 in 2.5 mi North 13.8 mph 33.4 mph N/A Rain Rain
6:08 AM 53.6 °F 50.0 °F 88% 29.31 in 3.0 mi NNE 11.5 mph 27.6 mph N/A Rain Light Rain
7:00 AM 53.6 °F 51.8 °F 94% 29.27 in 2.5 mi NNE 11.5 mph 28.8 mph N/A Rain Heavy Rain
7:06 AM 53.1 °F 51.1 °F 93% 29.26 in 2.5 mi NNE 12.7 mph 28.8 mph N/A Rain Rain
7:19 AM 53.6 °F 51.8 °F 94% 29.26 in 2.5 mi North 11.5 mph 27.6 mph N/A Rain Rain
7:40 AM 53.6 °F 51.8 °F 94% 29.24 in 3.0 mi NNE 13.8 mph 23.0 mph N/A Rain Heavy Rain
7:53 AM 53.6 °F 51.8 °F 94% 29.24 in 1.8 mi NNE 15.0 mph 26.5 mph N/A Rain Rain
8:00 AM 54.0 °F 52.0 °F 93% 29.23 in 1.5 mi NNE 13.8 mph 29.9 mph N/A Rain Heavy Rain
9:00 AM 54.0 °F 52.0 °F 93% 29.18 in 1.5 mi NNE 9.2 mph 23.0 mph N/A Rain Rain
10:00 AM 55.0 °F 53.1 °F 93% 29.11 in 1.5 mi NE 15.0 mph 31.1 mph N/A Rain Rain
11:00 AM 55.9 °F 54.0 °F 93% 29.03 in 1.5 mi NNE 17.3 mph 29.9 mph N/A Rain Rain
11:39 AM 57.2 °F 55.4 °F 94% 28.96 in 2.0 mi NNE 17.3 mph 32.2 mph N/A Rain Light Rain
11:53 AM 57.2 °F 55.4 °F 94% 28.94 in 1.5 mi NNE 16.1 mph 29.9 mph N/A Rain Rain
12:00 PM 57.2 °F 55.4 °F 94% 28.93 in 1.8 mi NNE 18.4 mph 29.9 mph N/A Rain Rain
12:06 PM 57.0 °F 55.0 °F 93% 28.92 in 1.8 mi NNE 16.1 mph 36.8 mph N/A Rain Rain
12:27 PM 57.2 °F 55.4 °F 94% 28.88 in 1.2 mi NNE 17.3 mph 35.7 mph N/A Rain Heavy Rain
12:35 PM 57.2 °F 55.4 °F 94% 28.87 in 1.5 mi NNE 17.3 mph 34.5 mph N/A Rain Rain
1:00 PM 57.9 °F 55.9 °F 93% 28.81 in 2.0 mi NNE 16.1 mph 35.7 mph N/A Rain Rain
1:11 PM 57.2 °F 55.4 °F 94% 28.79 in 1.5 mi NNE 15.0 mph 32.2 mph N/A Rain Rain
1:46 PM 57.2 °F 55.4 °F 94% 28.71 in 1.2 mi NNE 19.6 mph 50.6 mph N/A Rain Heavy Rain
2:00 PM 59.0 °F 57.0 °F 93% 28.69 in 1.0 mi NNE 12.7 mph 44.9 mph N/A Rain Heavy Rain
2:10 PM 59.0 °F 57.2 °F 94% 28.67 in 1.2 mi NE 19.6 mph 41.4 mph N/A Rain Heavy Rain
2:40 PM 59.0 °F 57.2 °F 94% 28.61 in 1.2 mi NNE 18.4 mph 43.7 mph N/A Rain Heavy Rain
3:00 PM 60.8 °F 57.2 °F 88% 28.56 in 2.0 mi NNE 21.9 mph 40.3 mph N/A Rain Rain
3:06 PM 60.1 °F 57.0 °F 90% 28.54 in 2.0 mi NE 23.0 mph 40.3 mph N/A Rain Rain
3:17 PM 60.8 °F 57.2 °F 88% 28.52 in 1.5 mi NNE 19.6 mph 51.8 mph N/A Rain Heavy Rain
4:00 PM 60.8 °F 57.2 °F 88% 28.45 in 0.8 mi NE 19.6 mph 41.4 mph N/A Rain Heavy Rain
5:00 PM 61.0 °F 59.0 °F 93% 28.35 in 1.0 mi NE 20.7 mph 44.9 mph N/A Rain Rain
5:11 PM 60.8 °F 60.8 °F 100% 28.33 in 0.8 mi NE 19.6 mph 36.8 mph N/A Rain Heavy Rain
5:22 PM 62.6 °F 60.8 °F 94% 28.32 in 1.0 mi NE 19.6 mph 40.3 mph N/A Rain Rain
6:00 PM 63.0 °F 61.0 °F 93% 28.26 in 1.2 mi NE 26.5 mph 47.2 mph N/A Rain Light Rain
6:20 PM 62.6 °F 60.8 °F 94% 28.23 in 1.0 mi NE 28.8 mph 48.3 mph N/A Rain Rain
6:36 PM 62.6 °F 60.8 °F 94% 28.21 in 1.0 mi NE 31.1 mph 47.2 mph N/A Rain Light Rain
7:00 PM 60.1 °F 57.9 °F 93% 28.23 in 1.5 mi East 40.3 mph 57.5 mph N/A Rain Light Rain
7:07 PM 59.0 °F 57.2 °F 94% 28.23 in 1.5 mi ENE 32.2 mph 51.8 mph 0.00 in Rain Light Rain
8:00 PM 57.0 °F 55.9 °F 96% 28.21 in 1.2 mi East 46.0 mph 61.0 mph 0.00 in Rain Light Rain
8:37 PM 57.2 °F 55.4 °F 94% 28.25 in 2.5 mi East 40.3 mph 67.9 mph 0.00 in Rain Light Rain
8:47 PM 57.2 °F 55.4 °F 94% 28.28 in 3.0 mi East 36.8 mph 71.3 mph 0.00 in   Overcast
9:00 PM 57.2 °F 55.4 °F 94% 28.32 in 2.5 mi ESE 39.1 mph 65.6 mph 0.00 in   Overcast
9:09 PM 57.2 °F 53.6 °F 88% 28.35 in 3.0 mi ESE 39.1 mph 64.4 mph 0.00 in   Overcast
9:18 PM 55.4 °F 53.6 °F 94% 28.39 in 2.5 mi ESE 38.0 mph 63.3 mph 0.00 in Rain Light Rain
10:00 PM 55.0 °F 52.0 °F 89% 28.53 in 3.0 mi SE 36.8 mph 57.5 mph 0.00 in Rain Light Rain
10:12 PM 53.6 °F 51.8 °F 94% 28.57 in 2.5 mi SE 27.6 mph 54.1 mph 0.00 in Rain Rain
10:24 PM 53.6 °F 51.8 °F 94% 28.60 in 3.0 mi SE 38.0 mph 54.1 mph N/A Rain Light Rain
10:42 PM 53.6 °F 51.8 °F 94% 28.65 in 2.5 mi SE 28.8 mph 48.3 mph N/A Rain Light Rain
11:00 PM 53.1 °F 50.0 °F 89% 28.69 in 2.5 mi SE 31.1 mph 54.1 mph N/A Rain Light Rain
11:02 PM 53.6 °F 50.0 °F 88% 28.69 in 3.0 mi SE 39.1 mph 52.9 mph N/A Rain Light Rain
11:15 PM 53.6 °F 51.8 °F 94% 28.72 in 2.5 mi SSE 32.2 mph 46.0 mph N/A Rain Rain
11:22 PM 51.8 °F 50.0 °F 94% 28.73 in 2.5 mi SSE 33.4 mph 46.0 mph N/A Rain Light Rain
11:37 PM 51.8 °F 50.0 °F 94% 28.77 in 4.0 mi SSE 24.2 mph 44.9 mph N/A Rain Rain